sensor_id;sensor_type;location;lat;lon;timestamp;P1;durP1;ratioP1;P2;durP2;ratioP2
21356;SDS011;10836;53.068;18.234;2023-04-08T00:00:47;123.27;;;62.87;;
21356;SDS011;10836;53.068;18.234;2023-04-08T00:03:19;119.17;;;58.20;;
21356;SDS011;10836;53.068;18.234;2023-04-08T00:05:46;135.07;;;61.37;;
21356;SDS011;10836;53.068;18.234;2023-04-08T00:08:13;118.90;;;59.80;;
21356;SDS011;10836;53.068;18.234;2023-04-08T00:10:40;111.07;;;55.30;;
21356;SDS011;10836;53.068;18.234;2023-04-08T00:13:07;109.87;;;55.37;;
21356;SDS011;10836;53.068;18.234;2023-04-08T00:15:35;96.13;;;49.83;;
21356;SDS011;10836;53.068;18.234;2023-04-08T00:18:02;114.37;;;54.17;;
21356;SDS011;10836;53.068;18.234;2023-04-08T00:20:29;95.10;;;48.77;;
21356;SDS011;10836;53.068;18.234;2023-04-08T00:22:56;84.17;;;43.40;;
21356;SDS011;10836;53.068;18.234;2023-04-08T00:25:23;98.83;;;50.10;;
21356;SDS011;10836;53.068;18.234;2023-04-08T00:27:51;93.20;;;49.70;;
21356;SDS011;10836;53.068;18.234;2023-04-08T00:30:18;113.47;;;53.53;;
21356;SDS011;10836;53.068;18.234;2023-04-08T00:32:45;99.03;;;48.90;;
21356;SDS011;10836;53.068;18.234;2023-04-08T00:35:13;249.13;;;63.23;;
21356;SDS011;10836;53.068;18.234;2023-04-08T00:37:39;104.43;;;51.23;;
21356;SDS011;10836;53.068;18.234;2023-04-08T00:40:07;98.47;;;50.43;;
21356;SDS011;10836;53.068;18.234;2023-04-08T00:42:34;88.23;;;48.23;;
21356;SDS011;10836;53.068;18.234;2023-04-08T00:45:01;80.20;;;44.30;;
21356;SDS011;10836;53.068;18.234;2023-04-08T00:47:30;74.00;;;42.03;;
21356;SDS011;10836;53.068;18.234;2023-04-08T00:49:57;107.53;;;47.47;;
21356;SDS011;10836;53.068;18.234;2023-04-08T00:52:24;88.83;;;47.07;;
21356;SDS011;10836;53.068;18.234;2023-04-08T00:54:51;122.57;;;53.67;;
21356;SDS011;10836;53.068;18.234;2023-04-08T00:57:18;84.37;;;48.37;;
21356;SDS011;10836;53.068;18.234;2023-04-08T00:59:45;119.10;;;53.23;;
21356;SDS011;10836;53.068;18.234;2023-04-08T01:05:09;71.33;;;39.57;;
21356;SDS011;10836;53.068;18.234;2023-04-08T01:07:48;73.83;;;39.80;;
21356;SDS011;10836;53.068;18.234;2023-04-08T01:10:20;68.63;;;39.83;;
21356;SDS011;10836;53.068;18.234;2023-04-08T01:12:55;68.80;;;39.67;;
21356;SDS011;10836;53.068;18.234;2023-04-08T01:15:25;68.67;;;39.47;;
21356;SDS011;10836;53.068;18.234;2023-04-08T01:17:54;64.20;;;38.53;;
21356;SDS011;10836;53.068;18.234;2023-04-08T01:20:23;60.60;;;35.93;;
21356;SDS011;10836;53.068;18.234;2023-04-08T01:25:31;70.07;;;38.63;;
21356;SDS011;10836;53.068;18.234;2023-04-08T01:28:00;60.93;;;35.53;;
21356;SDS011;10836;53.068;18.234;2023-04-08T01:30:41;48.57;;;28.27;;
21356;SDS011;10836;53.068;18.234;2023-04-08T01:33:11;47.83;;;29.43;;
21356;SDS011;10836;53.068;18.234;2023-04-08T01:35:39;57.73;;;28.50;;
21356;SDS011;10836;53.068;18.234;2023-04-08T01:38:08;41.53;;;26.63;;
21356;SDS011;10836;53.068;18.234;2023-04-08T01:40:37;53.13;;;27.83;;
21356;SDS011;10836;53.068;18.234;2023-04-08T01:43:07;49.67;;;25.50;;
21356;SDS011;10836;53.068;18.234;2023-04-08T01:45:37;42.60;;;26.57;;
21356;SDS011;10836;53.068;18.234;2023-04-08T01:48:04;62.20;;;28.57;;
21356;SDS011;10836;53.068;18.234;2023-04-08T01:50:32;39.83;;;27.17;;
21356;SDS011;10836;53.068;18.234;2023-04-08T01:53:00;41.37;;;25.73;;
21356;SDS011;10836;53.068;18.234;2023-04-08T01:55:31;41.50;;;25.53;;
21356;SDS011;10836;53.068;18.234;2023-04-08T01:57:59;39.70;;;26.83;;
21356;SDS011;10836;53.068;18.234;2023-04-08T02:00:28;44.23;;;26.93;;
21356;SDS011;10836;53.068;18.234;2023-04-08T02:02:56;52.27;;;28.10;;
21356;SDS011;10836;53.068;18.234;2023-04-08T02:05:25;40.03;;;25.23;;
21356;SDS011;10836;53.068;18.234;2023-04-08T02:07:52;36.83;;;23.90;;
21356;SDS011;10836;53.068;18.234;2023-04-08T02:10:19;32.77;;;22.00;;
21356;SDS011;10836;53.068;18.234;2023-04-08T02:12:46;37.27;;;23.90;;
21356;SDS011;10836;53.068;18.234;2023-04-08T02:15:14;38.63;;;24.47;;
21356;SDS011;10836;53.068;18.234;2023-04-08T02:17:45;35.77;;;19.93;;
21356;SDS011;10836;53.068;18.234;2023-04-08T02:20:20;74.30;;;20.50;;
21356;SDS011;10836;53.068;18.234;2023-04-08T02:22:56;24.53;;;17.57;;
21356;SDS011;10836;53.068;18.234;2023-04-08T02:25:28;29.57;;;18.33;;
21356;SDS011;10836;53.068;18.234;2023-04-08T02:27:56;34.93;;;20.73;;
21356;SDS011;10836;53.068;18.234;2023-04-08T02:30:26;34.57;;;19.47;;
21356;SDS011;10836;53.068;18.234;2023-04-08T02:32:53;33.47;;;20.27;;
21356;SDS011;10836;53.068;18.234;2023-04-08T02:35:22;31.17;;;19.60;;
21356;SDS011;10836;53.068;18.234;2023-04-08T02:37:50;34.37;;;20.67;;
21356;SDS011;10836;53.068;18.234;2023-04-08T02:40:28;57.20;;;22.43;;
21356;SDS011;10836;53.068;18.234;2023-04-08T02:42:56;44.17;;;21.93;;
21356;SDS011;10836;53.068;18.234;2023-04-08T02:45:43;33.90;;;21.43;;
21356;SDS011;10836;53.068;18.234;2023-04-08T02:48:11;35.53;;;20.57;;
21356;SDS011;10836;53.068;18.234;2023-04-08T02:50:38;41.30;;;21.10;;
21356;SDS011;10836;53.068;18.234;2023-04-08T02:53:06;34.83;;;20.43;;
21356;SDS011;10836;53.068;18.234;2023-04-08T02:55:34;32.70;;;19.60;;
21356;SDS011;10836;53.068;18.234;2023-04-08T02:58:01;37.13;;;21.60;;
21356;SDS011;10836;53.068;18.234;2023-04-08T03:00:28;36.03;;;20.90;;
21356;SDS011;10836;53.068;18.234;2023-04-08T03:02:55;28.70;;;17.87;;
21356;SDS011;10836;53.068;18.234;2023-04-08T03:05:25;29.97;;;18.57;;
21356;SDS011;10836;53.068;18.234;2023-04-08T03:07:52;34.97;;;19.70;;
21356;SDS011;10836;53.068;18.234;2023-04-08T03:10:19;30.47;;;18.90;;
21356;SDS011;10836;53.068;18.234;2023-04-08T03:12:46;32.17;;;19.00;;
21356;SDS011;10836;53.068;18.234;2023-04-08T03:15:13;40.57;;;19.33;;
21356;SDS011;10836;53.068;18.234;2023-04-08T03:17:40;34.40;;;18.40;;
21356;SDS011;10836;53.068;18.234;2023-04-08T03:20:07;42.30;;;18.70;;
21356;SDS011;10836;53.068;18.234;2023-04-08T03:22:34;36.57;;;18.63;;
21356;SDS011;10836;53.068;18.234;2023-04-08T03:25:02;48.13;;;19.07;;
21356;SDS011;10836;53.068;18.234;2023-04-08T03:27:29;35.90;;;19.00;;
21356;SDS011;10836;53.068;18.234;2023-04-08T03:29:57;32.07;;;18.97;;
21356;SDS011;10836;53.068;18.234;2023-04-08T03:32:24;27.57;;;16.67;;
21356;SDS011;10836;53.068;18.234;2023-04-08T03:34:51;33.90;;;18.03;;
21356;SDS011;10836;53.068;18.234;2023-04-08T03:37:18;30.17;;;17.60;;
21356;SDS011;10836;53.068;18.234;2023-04-08T03:39:45;31.67;;;17.60;;
21356;SDS011;10836;53.068;18.234;2023-04-08T03:42:12;31.27;;;17.53;;
21356;SDS011;10836;53.068;18.234;2023-04-08T03:44:39;31.37;;;17.80;;
21356;SDS011;10836;53.068;18.234;2023-04-08T03:47:06;29.13;;;16.33;;
21356;SDS011;10836;53.068;18.234;2023-04-08T03:49:33;32.40;;;14.43;;
21356;SDS011;10836;53.068;18.234;2023-04-08T03:52:00;30.83;;;15.73;;
21356;SDS011;10836;53.068;18.234;2023-04-08T03:54:27;68.50;;;17.53;;
21356;SDS011;10836;53.068;18.234;2023-04-08T03:56:54;30.67;;;15.83;;
21356;SDS011;10836;53.068;18.234;2023-04-08T03:59:21;30.73;;;16.03;;
21356;SDS011;10836;53.068;18.234;2023-04-08T04:01:48;28.43;;;15.10;;
21356;SDS011;10836;53.068;18.234;2023-04-08T04:04:17;28.50;;;15.20;;
21356;SDS011;10836;53.068;18.234;2023-04-08T04:06:44;25.03;;;14.07;;
21356;SDS011;10836;53.068;18.234;2023-04-08T04:09:11;22.43;;;13.30;;
21356;SDS011;10836;53.068;18.234;2023-04-08T04:11:38;25.20;;;14.30;;
21356;SDS011;10836;53.068;18.234;2023-04-08T04:14:05;25.77;;;14.50;;
21356;SDS011;10836;53.068;18.234;2023-04-08T04:16:32;27.20;;;14.93;;
21356;SDS011;10836;53.068;18.234;2023-04-08T04:18:59;28.47;;;14.57;;
21356;SDS011;10836;53.068;18.234;2023-04-08T04:21:26;25.83;;;14.90;;
21356;SDS011;10836;53.068;18.234;2023-04-08T04:23:53;25.60;;;13.50;;
21356;SDS011;10836;53.068;18.234;2023-04-08T04:26:20;24.40;;;13.93;;
21356;SDS011;10836;53.068;18.234;2023-04-08T04:28:47;24.97;;;14.20;;
21356;SDS011;10836;53.068;18.234;2023-04-08T04:31:21;21.67;;;13.17;;
21356;SDS011;10836;53.068;18.234;2023-04-08T04:33:52;25.30;;;14.80;;
21356;SDS011;10836;53.068;18.234;2023-04-08T04:36:19;24.10;;;13.53;;
21356;SDS011;10836;53.068;18.234;2023-04-08T04:38:46;24.83;;;13.77;;
21356;SDS011;10836;53.068;18.234;2023-04-08T04:41:16;25.23;;;13.80;;
21356;SDS011;10836;53.068;18.234;2023-04-08T04:43:43;35.47;;;14.20;;
21356;SDS011;10836;53.068;18.234;2023-04-08T04:46:10;29.37;;;14.10;;
21356;SDS011;10836;53.068;18.234;2023-04-08T04:48:37;26.20;;;14.63;;
21356;SDS011;10836;53.068;18.234;2023-04-08T04:51:04;24.57;;;13.70;;
21356;SDS011;10836;53.068;18.234;2023-04-08T04:53:33;28.53;;;14.63;;
21356;SDS011;10836;53.068;18.234;2023-04-08T04:56:00;63.57;;;16.30;;
21356;SDS011;10836;53.068;18.234;2023-04-08T04:58:28;69.17;;;15.67;;
21356;SDS011;10836;53.068;18.234;2023-04-08T05:00:55;43.53;;;17.00;;
21356;SDS011;10836;53.068;18.234;2023-04-08T05:03:23;28.07;;;14.43;;
21356;SDS011;10836;53.068;18.234;2023-04-08T05:05:50;39.80;;;18.07;;
21356;SDS011;10836;53.068;18.234;2023-04-08T05:08:18;33.70;;;18.17;;
21356;SDS011;10836;53.068;18.234;2023-04-08T05:10:46;45.63;;;19.83;;
21356;SDS011;10836;53.068;18.234;2023-04-08T05:13:16;66.37;;;24.23;;
21356;SDS011;10836;53.068;18.234;2023-04-08T05:15:43;38.63;;;20.37;;
21356;SDS011;10836;53.068;18.234;2023-04-08T05:18:13;57.23;;;23.50;;
21356;SDS011;10836;53.068;18.234;2023-04-08T05:20:40;37.47;;;20.83;;
21356;SDS011;10836;53.068;18.234;2023-04-08T05:23:07;37.03;;;18.53;;
21356;SDS011;10836;53.068;18.234;2023-04-08T05:25:34;33.93;;;18.30;;
21356;SDS011;10836;53.068;18.234;2023-04-08T05:28:02;33.87;;;16.90;;
21356;SDS011;10836;53.068;18.234;2023-04-08T05:30:29;32.47;;;16.37;;
21356;SDS011;10836;53.068;18.234;2023-04-08T05:32:56;32.70;;;17.90;;
21356;SDS011;10836;53.068;18.234;2023-04-08T05:35:26;36.80;;;18.97;;
21356;SDS011;10836;53.068;18.234;2023-04-08T05:37:53;35.03;;;18.37;;
21356;SDS011;10836;53.068;18.234;2023-04-08T05:40:20;32.80;;;18.67;;
21356;SDS011;10836;53.068;18.234;2023-04-08T05:42:47;30.77;;;17.83;;
21356;SDS011;10836;53.068;18.234;2023-04-08T05:45:14;25.43;;;16.17;;
21356;SDS011;10836;53.068;18.234;2023-04-08T05:47:42;23.17;;;15.47;;
21356;SDS011;10836;53.068;18.234;2023-04-08T05:50:09;25.27;;;14.30;;
21356;SDS011;10836;53.068;18.234;2023-04-08T05:52:40;24.87;;;15.10;;
21356;SDS011;10836;53.068;18.234;2023-04-08T05:55:11;27.77;;;15.13;;
21356;SDS011;10836;53.068;18.234;2023-04-08T05:57:39;22.47;;;13.83;;
21356;SDS011;10836;53.068;18.234;2023-04-08T06:00:07;21.77;;;13.93;;
21356;SDS011;10836;53.068;18.234;2023-04-08T06:02:36;20.33;;;13.63;;
21356;SDS011;10836;53.068;18.234;2023-04-08T06:05:04;18.27;;;12.47;;
21356;SDS011;10836;53.068;18.234;2023-04-08T06:07:32;19.90;;;12.73;;
21356;SDS011;10836;53.068;18.234;2023-04-08T06:09:59;20.67;;;12.30;;
21356;SDS011;10836;53.068;18.234;2023-04-08T06:12:27;18.63;;;12.17;;
21356;SDS011;10836;53.068;18.234;2023-04-08T06:14:54;20.97;;;12.27;;
21356;SDS011;10836;53.068;18.234;2023-04-08T06:17:24;20.27;;;12.90;;
21356;SDS011;10836;53.068;18.234;2023-04-08T06:19:52;20.67;;;13.67;;
21356;SDS011;10836;53.068;18.234;2023-04-08T06:22:18;20.93;;;12.40;;
21356;SDS011;10836;53.068;18.234;2023-04-08T06:24:46;20.63;;;12.33;;
21356;SDS011;10836;53.068;18.234;2023-04-08T06:27:13;20.53;;;12.50;;
21356;SDS011;10836;53.068;18.234;2023-04-08T06:29:40;16.93;;;10.50;;
21356;SDS011;10836;53.068;18.234;2023-04-08T06:32:09;17.00;;;11.40;;
21356;SDS011;10836;53.068;18.234;2023-04-08T06:34:36;17.37;;;11.30;;
21356;SDS011;10836;53.068;18.234;2023-04-08T06:37:04;17.10;;;10.80;;
21356;SDS011;10836;53.068;18.234;2023-04-08T06:39:32;19.10;;;10.53;;
21356;SDS011;10836;53.068;18.234;2023-04-08T06:41:59;17.50;;;11.48;;
21356;SDS011;10836;53.068;18.234;2023-04-08T06:44:37;16.92;;;11.18;;
21356;SDS011;10836;53.068;18.234;2023-04-08T06:47:04;15.05;;;10.20;;
21356;SDS011;10836;53.068;18.234;2023-04-08T06:49:31;15.35;;;10.15;;
21356;SDS011;10836;53.068;18.234;2023-04-08T06:51:58;16.60;;;10.65;;
21356;SDS011;10836;53.068;18.234;2023-04-08T06:54:25;16.42;;;10.98;;
21356;SDS011;10836;53.068;18.234;2023-04-08T06:56:52;16.15;;;10.43;;
21356;SDS011;10836;53.068;18.234;2023-04-08T06:59:19;19.40;;;12.20;;
21356;SDS011;10836;53.068;18.234;2023-04-08T07:01:46;18.63;;;12.25;;
21356;SDS011;10836;53.068;18.234;2023-04-08T07:04:13;20.60;;;13.23;;
21356;SDS011;10836;53.068;18.234;2023-04-08T07:06:40;20.88;;;13.52;;
21356;SDS011;10836;53.068;18.234;2023-04-08T07:09:07;21.08;;;13.65;;
21356;SDS011;10836;53.068;18.234;2023-04-08T07:11:34;20.00;;;14.02;;
21356;SDS011;10836;53.068;18.234;2023-04-08T07:14:01;25.23;;;16.88;;
21356;SDS011;10836;53.068;18.234;2023-04-08T07:16:28;26.00;;;17.33;;
21356;SDS011;10836;53.068;18.234;2023-04-08T07:18:55;26.40;;;17.00;;
21356;SDS011;10836;53.068;18.234;2023-04-08T07:21:22;27.50;;;16.13;;
21356;SDS011;10836;53.068;18.234;2023-04-08T07:23:49;28.60;;;16.53;;
21356;SDS011;10836;53.068;18.234;2023-04-08T07:26:16;24.67;;;15.17;;
21356;SDS011;10836;53.068;18.234;2023-04-08T07:28:44;27.20;;;16.47;;
21356;SDS011;10836;53.068;18.234;2023-04-08T07:31:11;26.13;;;16.77;;
21356;SDS011;10836;53.068;18.234;2023-04-08T07:33:40;28.47;;;17.33;;
21356;SDS011;10836;53.068;18.234;2023-04-08T07:36:09;27.60;;;17.40;;
21356;SDS011;10836;53.068;18.234;2023-04-08T07:38:37;28.40;;;17.43;;
21356;SDS011;10836;53.068;18.234;2023-04-08T07:41:04;31.60;;;18.90;;
21356;SDS011;10836;53.068;18.234;2023-04-08T07:43:31;30.77;;;18.47;;
21356;SDS011;10836;53.068;18.234;2023-04-08T07:46:03;33.33;;;19.13;;
21356;SDS011;10836;53.068;18.234;2023-04-08T07:48:31;30.97;;;19.07;;
21356;SDS011;10836;53.068;18.234;2023-04-08T07:51:03;33.43;;;19.40;;
21356;SDS011;10836;53.068;18.234;2023-04-08T07:53:35;29.73;;;17.70;;
21356;SDS011;10836;53.068;18.234;2023-04-08T07:56:09;27.23;;;16.77;;
21356;SDS011;10836;53.068;18.234;2023-04-08T07:58:40;28.10;;;17.30;;
21356;SDS011;10836;53.068;18.234;2023-04-08T08:01:20;27.53;;;17.20;;
21356;SDS011;10836;53.068;18.234;2023-04-08T08:03:49;28.67;;;17.07;;
21356;SDS011;10836;53.068;18.234;2023-04-08T08:06:18;29.37;;;18.57;;
21356;SDS011;10836;53.068;18.234;2023-04-08T08:08:45;30.57;;;18.33;;
21356;SDS011;10836;53.068;18.234;2023-04-08T08:11:12;29.40;;;18.50;;
21356;SDS011;10836;53.068;18.234;2023-04-08T08:13:39;33.17;;;19.53;;
21356;SDS011;10836;53.068;18.234;2023-04-08T08:16:06;32.87;;;18.93;;
21356;SDS011;10836;53.068;18.234;2023-04-08T08:18:37;29.77;;;17.57;;
21356;SDS011;10836;53.068;18.234;2023-04-08T08:21:06;26.77;;;16.83;;
21356;SDS011;10836;53.068;18.234;2023-04-08T08:23:33;24.57;;;14.43;;
21356;SDS011;10836;53.068;18.234;2023-04-08T08:26:01;30.13;;;16.77;;
21356;SDS011;10836;53.068;18.234;2023-04-08T08:28:29;25.00;;;14.67;;
21356;SDS011;10836;53.068;18.234;2023-04-08T08:30:56;24.10;;;15.23;;
21356;SDS011;10836;53.068;18.234;2023-04-08T08:33:23;26.50;;;15.70;;
21356;SDS011;10836;53.068;18.234;2023-04-08T08:35:51;27.30;;;16.13;;
21356;SDS011;10836;53.068;18.234;2023-04-08T08:38:17;26.33;;;15.83;;
21356;SDS011;10836;53.068;18.234;2023-04-08T08:40:45;27.50;;;16.10;;
21356;SDS011;10836;53.068;18.234;2023-04-08T08:43:12;24.97;;;15.20;;
21356;SDS011;10836;53.068;18.234;2023-04-08T08:45:40;26.27;;;15.67;;
21356;SDS011;10836;53.068;18.234;2023-04-08T08:48:07;27.03;;;16.80;;
21356;SDS011;10836;53.068;18.234;2023-04-08T08:50:35;23.80;;;15.50;;
21356;SDS011;10836;53.068;18.234;2023-04-08T08:53:05;22.77;;;14.80;;
21356;SDS011;10836;53.068;18.234;2023-04-08T08:55:33;21.50;;;14.03;;
21356;SDS011;10836;53.068;18.234;2023-04-08T08:58:20;21.40;;;13.90;;
21356;SDS011;10836;53.068;18.234;2023-04-08T09:00:47;22.17;;;13.43;;
21356;SDS011;10836;53.068;18.234;2023-04-08T09:05:53;20.90;;;13.53;;
21356;SDS011;10836;53.068;18.234;2023-04-08T09:08:25;21.77;;;13.93;;
21356;SDS011;10836;53.068;18.234;2023-04-08T09:11:16;20.77;;;12.93;;
21356;SDS011;10836;53.068;18.234;2023-04-08T09:13:44;17.40;;;12.13;;
21356;SDS011;10836;53.068;18.234;2023-04-08T09:16:13;18.15;;;12.25;;
21356;SDS011;10836;53.068;18.234;2023-04-08T09:18:44;18.90;;;12.48;;
21356;SDS011;10836;53.068;18.234;2023-04-08T09:21:13;20.13;;;12.45;;
21356;SDS011;10836;53.068;18.234;2023-04-08T09:23:46;18.10;;;12.23;;
21356;SDS011;10836;53.068;18.234;2023-04-08T09:26:16;20.48;;;12.80;;
21356;SDS011;10836;53.068;18.234;2023-04-08T09:31:33;18.80;;;12.10;;
21356;SDS011;10836;53.068;18.234;2023-04-08T09:34:12;19.58;;;11.77;;
21356;SDS011;10836;53.068;18.234;2023-04-08T09:36:42;16.45;;;11.65;;
21356;SDS011;10836;53.068;18.234;2023-04-08T09:39:10;19.67;;;11.48;;
21356;SDS011;10836;53.068;18.234;2023-04-08T09:41:37;17.52;;;12.43;;
21356;SDS011;10836;53.068;18.234;2023-04-08T09:44:05;17.88;;;12.27;;
21356;SDS011;10836;53.068;18.234;2023-04-08T09:52:12;16.85;;;11.38;;
21356;SDS011;10836;53.068;18.234;2023-04-08T09:55:02;17.63;;;11.18;;
21356;SDS011;10836;53.068;18.234;2023-04-08T10:00:14;16.55;;;11.48;;
21356;SDS011;10836;53.068;18.234;2023-04-08T10:05:26;16.45;;;11.27;;
21356;SDS011;10836;53.068;18.234;2023-04-08T10:07:54;15.60;;;11.52;;
21356;SDS011;10836;53.068;18.234;2023-04-08T10:10:22;18.90;;;12.13;;
21356;SDS011;10836;53.068;18.234;2023-04-08T10:12:50;16.58;;;11.65;;
21356;SDS011;10836;53.068;18.234;2023-04-08T10:15:24;16.92;;;11.85;;
21356;SDS011;10836;53.068;18.234;2023-04-08T10:17:53;20.58;;;12.43;;
21356;SDS011;10836;53.068;18.234;2023-04-08T10:23:05;16.30;;;11.80;;
21356;SDS011;10836;53.068;18.234;2023-04-08T10:28:22;16.30;;;10.75;;
21356;SDS011;10836;53.068;18.234;2023-04-08T10:30:54;18.83;;;11.77;;
21356;SDS011;10836;53.068;18.234;2023-04-08T10:33:23;17.48;;;10.98;;
21356;SDS011;10836;53.068;18.234;2023-04-08T10:38:28;15.27;;;10.30;;
21356;SDS011;10836;53.068;18.234;2023-04-08T10:40:55;17.85;;;12.75;;
21356;SDS011;10836;53.068;18.234;2023-04-08T10:43:22;15.95;;;11.63;;
21356;SDS011;10836;53.068;18.234;2023-04-08T10:45:49;15.70;;;11.40;;
21356;SDS011;10836;53.068;18.234;2023-04-08T10:48:20;15.38;;;10.75;;
21356;SDS011;10836;53.068;18.234;2023-04-08T10:50:54;14.32;;;10.23;;
21356;SDS011;10836;53.068;18.234;2023-04-08T10:53:26;16.67;;;11.45;;
21356;SDS011;10836;53.068;18.234;2023-04-08T10:56:09;15.57;;;11.30;;
21356;SDS011;10836;53.068;18.234;2023-04-08T10:58:47;14.95;;;10.05;;
21356;SDS011;10836;53.068;18.234;2023-04-08T11:01:20;15.63;;;10.88;;
21356;SDS011;10836;53.068;18.234;2023-04-08T11:03:48;15.48;;;11.10;;
21356;SDS011;10836;53.068;18.234;2023-04-08T11:06:15;15.85;;;11.55;;
21356;SDS011;10836;53.068;18.234;2023-04-08T11:08:43;15.65;;;9.65;;
21356;SDS011;10836;53.068;18.234;2023-04-08T11:11:10;14.05;;;10.20;;
21356;SDS011;10836;53.068;18.234;2023-04-08T11:13:41;14.13;;;10.30;;
21356;SDS011;10836;53.068;18.234;2023-04-08T11:16:19;16.05;;;10.05;;
21356;SDS011;10836;53.068;18.234;2023-04-08T11:18:47;15.13;;;11.85;;
21356;SDS011;10836;53.068;18.234;2023-04-08T11:21:16;17.02;;;11.63;;
21356;SDS011;10836;53.068;18.234;2023-04-08T11:23:43;16.58;;;11.80;;
21356;SDS011;10836;53.068;18.234;2023-04-08T11:26:10;14.35;;;10.10;;
21356;SDS011;10836;53.068;18.234;2023-04-08T11:28:37;16.17;;;11.57;;
21356;SDS011;10836;53.068;18.234;2023-04-08T11:31:05;17.55;;;11.25;;
21356;SDS011;10836;53.068;18.234;2023-04-08T11:33:34;13.77;;;10.13;;
21356;SDS011;10836;53.068;18.234;2023-04-08T11:36:01;14.48;;;10.52;;
21356;SDS011;10836;53.068;18.234;2023-04-08T11:38:34;14.07;;;10.40;;
21356;SDS011;10836;53.068;18.234;2023-04-08T11:41:04;14.57;;;9.88;;
21356;SDS011;10836;53.068;18.234;2023-04-08T11:43:31;13.38;;;9.95;;
21356;SDS011;10836;53.068;18.234;2023-04-08T11:45:58;15.27;;;11.35;;
21356;SDS011;10836;53.068;18.234;2023-04-08T11:48:26;15.70;;;10.82;;
21356;SDS011;10836;53.068;18.234;2023-04-08T11:51:04;15.02;;;10.20;;
21356;SDS011;10836;53.068;18.234;2023-04-08T11:53:34;16.30;;;10.43;;
21356;SDS011;10836;53.068;18.234;2023-04-08T11:56:16;15.63;;;10.00;;
21356;SDS011;10836;53.068;18.234;2023-04-08T11:58:44;12.90;;;9.82;;
21356;SDS011;10836;53.068;18.234;2023-04-08T12:01:12;14.18;;;9.98;;
21356;SDS011;10836;53.068;18.234;2023-04-08T12:03:52;15.27;;;10.88;;
21356;SDS011;10836;53.068;18.234;2023-04-08T12:06:20;17.05;;;11.82;;
21356;SDS011;10836;53.068;18.234;2023-04-08T12:08:48;15.95;;;11.85;;
21356;SDS011;10836;53.068;18.234;2023-04-08T12:11:15;16.92;;;11.18;;
21356;SDS011;10836;53.068;18.234;2023-04-08T12:13:45;14.95;;;10.55;;
21356;SDS011;10836;53.068;18.234;2023-04-08T12:16:15;14.70;;;10.48;;
21356;SDS011;10836;53.068;18.234;2023-04-08T12:18:43;16.35;;;10.70;;
21356;SDS011;10836;53.068;18.234;2023-04-08T12:21:10;16.08;;;10.45;;
21356;SDS011;10836;53.068;18.234;2023-04-08T12:23:37;16.25;;;10.05;;
21356;SDS011;10836;53.068;18.234;2023-04-08T12:26:04;13.90;;;9.77;;
21356;SDS011;10836;53.068;18.234;2023-04-08T12:28:32;15.60;;;10.00;;
21356;SDS011;10836;53.068;18.234;2023-04-08T12:31:00;16.20;;;10.90;;
21356;SDS011;10836;53.068;18.234;2023-04-08T12:33:28;16.48;;;11.30;;
21356;SDS011;10836;53.068;18.234;2023-04-08T12:35:55;15.13;;;10.27;;
21356;SDS011;10836;53.068;18.234;2023-04-08T12:38:25;15.25;;;9.80;;
21356;SDS011;10836;53.068;18.234;2023-04-08T12:40:52;15.63;;;11.00;;
21356;SDS011;10836;53.068;18.234;2023-04-08T12:43:21;14.20;;;9.77;;
21356;SDS011;10836;53.068;18.234;2023-04-08T12:45:49;17.27;;;10.95;;
21356;SDS011;10836;53.068;18.234;2023-04-08T12:48:16;13.75;;;10.25;;
21356;SDS011;10836;53.068;18.234;2023-04-08T12:50:43;15.48;;;10.85;;
21356;SDS011;10836;53.068;18.234;2023-04-08T12:53:11;13.73;;;9.77;;
21356;SDS011;10836;53.068;18.234;2023-04-08T12:55:38;16.75;;;10.70;;
21356;SDS011;10836;53.068;18.234;2023-04-08T12:58:05;14.95;;;9.70;;
21356;SDS011;10836;53.068;18.234;2023-04-08T13:00:32;17.65;;;11.30;;
21356;SDS011;10836;53.068;18.234;2023-04-08T13:02:59;16.42;;;10.77;;
21356;SDS011;10836;53.068;18.234;2023-04-08T13:05:26;16.25;;;10.57;;
21356;SDS011;10836;53.068;18.234;2023-04-08T13:08:09;15.48;;;10.52;;
21356;SDS011;10836;53.068;18.234;2023-04-08T13:10:37;15.55;;;10.25;;
21356;SDS011;10836;53.068;18.234;2023-04-08T13:13:04;17.23;;;10.88;;
21356;SDS011;10836;53.068;18.234;2023-04-08T13:15:32;13.25;;;9.13;;
21356;SDS011;10836;53.068;18.234;2023-04-08T13:17:59;16.10;;;10.48;;
21356;SDS011;10836;53.068;18.234;2023-04-08T13:20:26;15.57;;;9.95;;
21356;SDS011;10836;53.068;18.234;2023-04-08T13:22:53;15.27;;;10.13;;
21356;SDS011;10836;53.068;18.234;2023-04-08T13:25:20;14.45;;;9.48;;
21356;SDS011;10836;53.068;18.234;2023-04-08T13:27:47;14.00;;;8.38;;
21356;SDS011;10836;53.068;18.234;2023-04-08T13:30:14;12.30;;;8.07;;
21356;SDS011;10836;53.068;18.234;2023-04-08T13:32:42;12.95;;;8.45;;
21356;SDS011;10836;53.068;18.234;2023-04-08T13:35:09;14.18;;;8.57;;
21356;SDS011;10836;53.068;18.234;2023-04-08T13:37:36;12.88;;;8.07;;
21356;SDS011;10836;53.068;18.234;2023-04-08T13:40:03;14.43;;;9.48;;
21356;SDS011;10836;53.068;18.234;2023-04-08T13:42:31;12.65;;;8.43;;
21356;SDS011;10836;53.068;18.234;2023-04-08T13:44:58;14.73;;;9.23;;
21356;SDS011;10836;53.068;18.234;2023-04-08T13:47:25;12.68;;;8.45;;
21356;SDS011;10836;53.068;18.234;2023-04-08T13:49:53;13.52;;;8.95;;
21356;SDS011;10836;53.068;18.234;2023-04-08T13:52:20;14.63;;;9.43;;
21356;SDS011;10836;53.068;18.234;2023-04-08T13:54:47;16.25;;;9.77;;
21356;SDS011;10836;53.068;18.234;2023-04-08T13:57:14;13.27;;;8.60;;
21356;SDS011;10836;53.068;18.234;2023-04-08T13:59:41;12.30;;;8.77;;
21356;SDS011;10836;53.068;18.234;2023-04-08T14:02:10;14.98;;;9.10;;
21356;SDS011;10836;53.068;18.234;2023-04-08T14:04:38;12.45;;;8.35;;
21356;SDS011;10836;53.068;18.234;2023-04-08T14:07:06;12.10;;;8.63;;
21356;SDS011;10836;53.068;18.234;2023-04-08T14:09:33;11.65;;;8.10;;
21356;SDS011;10836;53.068;18.234;2023-04-08T14:12:00;12.88;;;8.27;;
21356;SDS011;10836;53.068;18.234;2023-04-08T14:14:27;13.93;;;8.57;;
21356;SDS011;10836;53.068;18.234;2023-04-08T14:16:54;13.65;;;8.27;;
21356;SDS011;10836;53.068;18.234;2023-04-08T14:19:21;13.75;;;9.00;;
21356;SDS011;10836;53.068;18.234;2023-04-08T14:21:49;10.88;;;7.65;;
21356;SDS011;10836;53.068;18.234;2023-04-08T14:24:15;13.20;;;8.40;;
21356;SDS011;10836;53.068;18.234;2023-04-08T14:26:43;12.82;;;8.02;;
21356;SDS011;10836;53.068;18.234;2023-04-08T14:29:10;11.85;;;7.90;;
21356;SDS011;10836;53.068;18.234;2023-04-08T14:31:37;11.65;;;7.70;;
21356;SDS011;10836;53.068;18.234;2023-04-08T14:34:04;11.15;;;7.68;;
21356;SDS011;10836;53.068;18.234;2023-04-08T14:36:31;9.77;;;7.45;;
21356;SDS011;10836;53.068;18.234;2023-04-08T14:38:58;12.13;;;7.78;;
21356;SDS011;10836;53.068;18.234;2023-04-08T14:41:25;11.93;;;7.80;;
21356;SDS011;10836;53.068;18.234;2023-04-08T14:43:52;10.13;;;7.05;;
21356;SDS011;10836;53.068;18.234;2023-04-08T14:46:20;11.57;;;7.70;;
21356;SDS011;10836;53.068;18.234;2023-04-08T14:48:47;13.82;;;8.20;;